Time;durP1;ratioP1;P1;durP2;ratioP2;P2;SDS_P1;SDS_P2;PMS_P1;PMS_P2;Temp;Humidity;BMP_temperature;BMP_pressure;BME280_temperature;BME280_humidity;BME280_pressure;Samples;Min_cycle;Max_cycle;Signal;HPM_P1;HPM_P2
2023/09/18 00:00:22;;;;;;;2.60;1.70;;;25.80;55.00;;;;;;5024044;28;20021;-63
2023/09/18 00:02:48;;;;;;;2.70;1.95;;;25.80;55.00;;;;;;5021829;28;20649;-63
2023/09/18 00:05:15;;;;;;;2.25;1.70;;;25.80;55.00;;;;;;5019350;28;20022;-64
2023/09/18 00:07:44;;;;;;;2.67;1.90;;;25.80;55.00;;;;;;5021257;28;20034;-63
2023/09/18 00:10:10;;;;;;;;;;;25.80;55.00;;;;;;5022736;28;20036;-65
2023/09/18 00:12:36;;;;;;;2.47;1.77;;;25.80;55.00;;;;;;5018267;28;19909;-63
2023/09/18 00:15:02;;;;;;;2.30;1.77;;;25.80;55.00;;;;;;5021024;28;20118;-63
2023/09/18 00:17:28;;;;;;;2.47;1.70;;;25.80;55.00;;;;;;5020998;28;20026;-64
2023/09/18 00:19:53;;;;;;;2.10;1.60;;;25.80;55.10;;;;;;5020278;28;20022;-64
2023/09/18 00:22:20;;;;;;;2.22;1.65;;;25.80;55.00;;;;;;5020387;28;20079;-64
2023/09/18 00:24:46;;;;;;;2.47;1.80;;;25.80;55.10;;;;;;5021222;28;20029;-64
2023/09/18 00:27:13;;;;;;;2.15;1.67;;;25.80;55.10;;;;;;5017159;28;20079;-64
2023/09/18 00:29:39;;;;;;;2.47;1.67;;;25.80;55.10;;;;;;5019749;28;20473;-64
2023/09/18 00:32:05;;;;;;;2.05;1.65;;;25.80;55.10;;;;;;5018343;28;20037;-64
2023/09/18 00:34:34;;;;;;;2.92;1.70;;;25.80;55.10;;;;;;5019369;28;20021;-64
2023/09/18 00:37:00;;;;;;;2.03;1.70;;;25.80;55.10;;;;;;5018739;28;20081;-63
2023/09/18 00:39:26;;;;;;;1.75;1.52;;;25.80;55.10;;;;;;5020293;28;20460;-63
2023/09/18 00:41:53;;;;;;;2.20;1.60;;;25.80;55.10;;;;;;5020690;28;20041;-63
2023/09/18 00:44:22;;;;;;;1.95;1.60;;;25.80;55.10;;;;;;5024031;28;20369;-63
2023/09/18 00:46:49;;;;;;;2.05;1.60;;;25.80;55.10;;;;;;5022035;28;20026;-63
2023/09/18 00:49:16;;;;;;;2.40;1.60;;;25.80;55.10;;;;;;5020561;28;20037;-63
2023/09/18 00:51:42;;;;;;;1.75;1.40;;;25.80;55.10;;;;;;5020351;28;20037;-63
2023/09/18 00:54:08;;;;;;;2.17;1.60;;;25.70;55.10;;;;;;5017019;28;20475;-63
2023/09/18 00:56:34;;;;;;;2.30;1.70;;;25.70;55.10;;;;;;5019326;28;20022;-63
2023/09/18 00:59:01;;;;;;;2.10;1.60;;;25.70;55.00;;;;;;5020351;28;20036;-63
2023/09/18 01:01:27;;;;;;;2.55;1.73;;;25.70;55.00;;;;;;5020312;28;20065;-63
2023/09/18 01:03:53;;;;;;;2.00;1.58;;;25.70;55.10;;;;;;5016806;28;20493;-63
2023/09/18 01:06:20;;;;;;;2.42;1.88;;;25.70;55.10;;;;;;5019182;28;20033;-63
2023/09/18 01:08:47;;;;;;;1.88;1.55;;;25.70;55.10;;;;;;5019676;28;20025;-64
2023/09/18 01:11:33;;;;;;;2.10;1.65;;;25.70;55.10;;;;;;5018739;28;20102;-63
2023/09/18 01:14:24;;;;;;;1.83;1.58;;;25.70;55.10;;;;;;5020884;28;20033;-64
2023/09/18 01:17:03;;;;;;;2.08;1.60;;;25.70;55.10;;;;;;5019995;28;20030;-63
2023/09/18 01:19:40;;;;;;;2.20;1.67;;;25.70;55.10;;;;;;5019347;28;20065;-62
2023/09/18 01:22:07;;;;;;;2.15;1.60;;;25.70;55.10;;;;;;5020490;28;20049;-63
2023/09/18 01:24:34;;;;;;;2.60;1.75;;;25.70;55.10;;;;;;5022339;28;20026;-63
2023/09/18 01:27:00;;;;;;;2.22;1.75;;;25.70;55.10;;;;;;5017984;28;20032;-63
2023/09/18 01:29:26;;;;;;;1.90;1.50;;;25.70;55.10;;;;;;5021226;28;20029;-63
2023/09/18 01:31:53;;;;;;;2.00;1.58;;;25.70;55.10;;;;;;5019880;28;20389;-62
2023/09/18 01:34:26;;;;;;;2.10;1.50;;;25.70;55.10;;;;;;5019122;28;20036;-63
2023/09/18 01:36:52;;;;;;;2.15;1.70;;;25.70;55.10;;;;;;5020079;28;20538;-62
2023/09/18 01:39:20;;;;;;;1.83;1.50;;;25.60;55.10;;;;;;5020595;28;20511;-63
2023/09/18 01:41:47;;;;;;;2.05;1.55;;;25.70;55.10;;;;;;5017368;28;20022;-63
2023/09/18 01:44:13;;;;;;;2.10;1.60;;;25.60;55.10;;;;;;5017991;28;20052;-62
2023/09/18 01:46:40;;;;;;;2.65;1.90;;;25.60;55.10;;;;;;5017957;28;20034;-63
2023/09/18 01:49:05;;;;;;;1.95;1.60;;;25.60;55.10;;;;;;5019017;28;20037;-62
2023/09/18 01:51:31;;;;;;;2.17;1.60;;;25.60;55.10;;;;;;5017942;28;20822;-63
2023/09/18 01:53:57;;;;;;;1.92;1.52;;;25.60;55.10;;;;;;5020758;28;20162;-63
2023/09/18 01:56:23;;;;;;;2.30;1.77;;;25.60;55.10;;;;;;5019039;28;20030;-62
2023/09/18 01:58:52;;;;;;;2.38;1.73;;;25.60;55.10;;;;;;5019883;28;20068;-62
2023/09/18 02:01:18;;;;;;;2.08;1.73;;;25.60;55.10;;;;;;5016541;28;20030;-63
2023/09/18 02:03:45;;;;;;;2.25;1.80;;;25.60;55.10;;;;;;5019248;28;20030;-63
2023/09/18 02:06:11;;;;;;;1.90;1.60;;;25.60;55.10;;;;;;5018594;28;20379;-63
2023/09/18 02:08:36;;;;;;;1.77;1.40;;;25.60;55.70;;;;;;5019041;28;20063;-62
2023/09/18 02:11:05;;;;;;;2.35;1.77;;;25.60;55.10;;;;;;5019981;28;20122;-63
2023/09/18 02:13:31;;;;;;;2.85;2.00;;;25.60;55.10;;;;;;5017804;28;20168;-63
2023/09/18 02:15:56;;;;;;;2.35;1.70;;;25.60;55.20;;;;;;5018952;28;20049;-63
2023/09/18 02:18:22;;;;;;;2.10;1.70;;;25.60;55.10;;;;;;5019640;28;20022;-62
2023/09/18 02:20:49;;;;;;;2.10;1.65;;;25.60;55.10;;;;;;5018946;28;20102;-62
2023/09/18 02:23:18;;;;;;;1.83;1.40;;;25.60;55.10;;;;;;5018146;28;20038;-63
2023/09/18 02:25:44;;;;;;;;;;;25.60;55.10;;;;;;5019355;28;20029;-63
2023/09/18 02:28:10;;;;;;;2.00;1.50;;;25.60;55.10;;;;;;5015426;28;19910;-62
2023/09/18 02:30:35;;;;;;;1.90;1.50;;;25.60;55.10;;;;;;5018234;28;20026;-62
2023/09/18 02:33:03;;;;;;;2.22;1.67;;;25.60;55.10;;;;;;5019639;28;20096;-64
2023/09/18 02:35:29;;;;;;;2.08;1.65;;;25.60;55.20;;;;;;5018981;28;20034;-62
2023/09/18 02:37:55;;;;;;;2.13;1.63;;;25.50;55.10;;;;;;5015759;28;20028;-62
2023/09/18 02:40:20;;;;;;;2.10;1.70;;;25.50;55.10;;;;;;5017524;28;20400;-63
2023/09/18 02:42:46;;;;;;;2.10;1.70;;;25.50;55.10;;;;;;5016608;28;20026;-63
2023/09/18 02:45:12;;;;;;;2.15;1.70;;;25.50;55.10;;;;;;5020048;28;20401;-64
2023/09/18 02:47:40;;;;;;;1.85;1.52;;;25.50;55.10;;;;;;5019146;28;20030;-63
2023/09/18 02:50:07;;;;;;;2.05;1.65;;;25.50;55.10;;;;;;5017705;28;20037;-62
2023/09/18 02:52:32;;;;;;;1.77;1.50;;;25.50;55.10;;;;;;5017077;28;20033;-63
2023/09/18 02:54:58;;;;;;;2.50;1.63;;;25.50;55.10;;;;;;5017205;28;20029;-64
2023/09/18 02:57:24;;;;;;;1.90;1.52;;;25.50;55.10;;;;;;5017998;28;20504;-62
2023/09/18 02:59:49;;;;;;;2.50;1.65;;;25.50;55.10;;;;;;5017366;28;20033;-63
2023/09/18 03:02:15;;;;;;;2.20;1.75;;;25.50;55.10;;;;;;5018300;28;20033;-63
2023/09/18 03:04:40;;;;;;;2.15;1.70;;;25.50;55.10;;;;;;5018701;28;20021;-63
2023/09/18 03:07:06;;;;;;;1.90;1.60;;;25.50;55.10;;;;;;5019177;28;20029;-63
2023/09/18 03:09:32;;;;;;;2.00;1.58;;;25.50;55.10;;;;;;5018536;28;20067;-62
2023/09/18 03:11:57;;;;;;;2.30;1.60;;;25.50;55.20;;;;;;5017782;28;20132;-63
2023/09/18 03:14:23;;;;;;;2.20;1.60;;;25.50;55.10;;;;;;5018258;28;20029;-63
2023/09/18 03:16:50;;;;;;;2.90;1.80;;;25.50;55.10;;;;;;5017965;28;20151;-63
2023/09/18 03:19:15;;;;;;;1.80;1.50;;;25.50;55.10;;;;;;5018342;28;20519;-62
2023/09/18 03:21:41;;;;;;;1.77;1.45;;;25.50;55.10;;;;;;5017191;28;20030;-63
2023/09/18 03:24:07;;;;;;;1.98;1.60;;;25.50;55.20;;;;;;5016339;28;20105;-63
2023/09/18 03:26:33;;;;;;;2.50;1.75;;;25.40;55.10;;;;;;5016633;28;20038;-64
2023/09/18 03:28:58;;;;;;;2.28;1.70;;;25.40;55.10;;;;;;5017240;28;20037;-64
2023/09/18 03:31:24;;;;;;;2.05;1.75;;;25.40;55.10;;;;;;5018380;28;20040;-64
2023/09/18 03:33:49;;;;;;;1.98;1.65;;;25.40;55.10;;;;;;5020309;28;20480;-64
2023/09/18 03:36:15;;;;;;;1.70;1.50;;;25.50;55.20;;;;;;5020472;28;20022;-67
2023/09/18 03:38:41;;;;;;;2.22;1.83;;;25.40;55.10;;;;;;5021516;28;20021;-67
2023/09/18 03:41:07;;;;;;;1.70;1.40;;;25.40;55.10;;;;;;5019817;28;20618;-67
2023/09/18 03:43:33;;;;;;;2.00;1.70;;;25.40;55.10;;;;;;5019748;28;20562;-67
2023/09/18 03:46:07;;;;;;;2.20;1.70;;;25.50;55.70;;;;;;5022913;28;20131;-67
2023/09/18 03:48:37;;;;;;;2.17;1.67;;;25.40;55.10;;;;;;5021299;28;20386;-67
2023/09/18 03:51:07;;;;;;;2.38;1.70;;;25.40;55.10;;;;;;5020878;28;20067;-67
2023/09/18 03:53:33;;;;;;;2.00;1.70;;;25.40;55.10;;;;;;5021023;28;20919;-67
2023/09/18 03:56:00;;;;;;;2.08;1.48;;;25.40;55.10;;;;;;5021039;28;20098;-67
2023/09/18 03:58:26;;;;;;;1.88;1.60;;;25.40;55.20;;;;;;5020419;28;20381;-67
2023/09/18 04:00:52;;;;;;;2.10;1.80;;;25.40;55.20;;;;;;5019040;28;20474;-67
2023/09/18 04:03:18;;;;;;;2.10;1.63;;;25.40;55.20;;;;;;5022040;28;20083;-66
2023/09/18 04:05:43;;;;;;;1.95;1.60;;;25.40;55.20;;;;;;5023447;28;20032;-67
2023/09/18 04:08:09;;;;;;;2.20;1.70;;;25.40;55.20;;;;;;5022010;28;20047;-67
2023/09/18 04:10:35;;;;;;;2.03;1.70;;;25.40;55.20;;;;;;5019876;28;20083;-67
2023/09/18 04:13:00;;;;;;;2.20;1.77;;;25.40;55.20;;;;;;5018858;28;20025;-66
2023/09/18 04:15:27;;;;;;;2.13;1.70;;;25.40;55.20;;;;;;5019422;28;20458;-67
2023/09/18 04:17:53;;;;;;;2.20;1.80;;;25.40;55.20;;;;;;5021976;28;20032;-67
2023/09/18 04:20:19;;;;;;;1.98;1.60;;;25.40;55.20;;;;;;5018940;28;20041;-68
2023/09/18 04:22:50;;;;;;;2.65;1.95;;;25.40;55.30;;;;;;5019275;28;20516;-67
2023/09/18 04:25:16;;;;;;;2.20;1.73;;;25.40;55.30;;;;;;5020414;28;20096;-67
2023/09/18 04:27:42;;;;;;;2.28;1.80;;;25.40;55.30;;;;;;5020626;28;20052;-67
2023/09/18 04:30:11;;;;;;;2.53;2.13;;;25.40;55.30;;;;;;5021463;28;20455;-67
2023/09/18 04:32:37;;;;;;;2.20;1.80;;;25.40;55.30;;;;;;5020176;28;20033;-67
2023/09/18 04:35:05;;;;;;;2.45;1.95;;;25.40;55.30;;;;;;5021423;28;20033;-64
2023/09/18 04:37:30;;;;;;;2.40;2.00;;;25.40;55.30;;;;;;5019460;28;20418;-64
2023/09/18 04:39:57;;;;;;;2.80;2.33;;;25.40;55.30;;;;;;5020732;28;20025;-64
2023/09/18 04:42:23;;;;;;;2.22;1.90;;;25.40;55.30;;;;;;5020357;28;20519;-64
2023/09/18 04:44:49;;;;;;;2.20;1.80;;;25.40;55.30;;;;;;5020077;28;20041;-64
2023/09/18 04:47:15;;;;;;;2.40;1.90;;;25.40;55.30;;;;;;5021309;28;20434;-64
2023/09/18 04:49:40;;;;;;;2.33;1.70;;;25.40;55.30;;;;;;5021281;28;20505;-64
2023/09/18 04:52:06;;;;;;;2.00;1.60;;;25.30;55.20;;;;;;5020014;28;20493;-64
2023/09/18 04:54:31;;;;;;;2.30;1.77;;;25.40;55.30;;;;;;5020782;28;20141;-64
2023/09/18 04:56:57;;;;;;;2.13;1.77;;;25.30;55.20;;;;;;5020442;28;20022;-63
2023/09/18 04:59:23;;;;;;;2.20;1.83;;;25.40;55.30;;;;;;5018802;28;20029;-64
2023/09/18 05:01:48;;;;;;;2.53;1.92;;;25.30;55.20;;;;;;5020227;28;20021;-64
2023/09/18 05:04:14;;;;;;;2.30;1.90;;;25.30;55.20;;;;;;5019228;28;20029;-64
2023/09/18 05:06:41;;;;;;;2.53;2.00;;;25.40;55.30;;;;;;5019161;28;20381;-63
2023/09/18 05:09:07;;;;;;;1.90;1.60;;;25.40;55.30;;;;;;5019997;28;20120;-63
2023/09/18 05:11:33;;;;;;;1.70;1.50;;;25.30;55.20;;;;;;5019183;28;20509;-64
2023/09/18 05:13:59;;;;;;;2.63;2.03;;;25.30;55.20;;;;;;5018127;28;20022;-63
2023/09/18 05:16:24;;;;;;;2.72;1.90;;;25.30;55.20;;;;;;5020428;28;20092;-64
2023/09/18 05:18:50;;;;;;;2.20;2.00;;;25.40;55.30;;;;;;5021459;28;20492;-64
2023/09/18 05:21:17;;;;;;;2.30;1.80;;;25.30;55.20;;;;;;5018495;28;20043;-64
2023/09/18 05:23:43;;;;;;;2.50;1.75;;;25.30;55.10;;;;;;5019664;28;20030;-64
2023/09/18 05:26:09;;;;;;;2.28;1.90;;;25.30;55.20;;;;;;5019762;28;20036;-64
2023/09/18 05:28:34;;;;;;;2.38;1.85;;;25.30;55.10;;;;;;5020712;28;20053;-64
2023/09/18 05:31:00;;;;;;;2.30;1.80;;;25.30;55.70;;;;;;5020415;28;20103;-64
2023/09/18 05:33:26;;;;;;;2.38;1.80;;;25.30;55.20;;;;;;5019042;28;20037;-64
2023/09/18 05:35:52;;;;;;;2.20;1.80;;;25.30;55.30;;;;;;5020394;28;20441;-64
2023/09/18 05:38:17;;;;;;;2.65;2.15;;;25.30;55.10;;;;;;5018524;28;20088;-64
2023/09/18 05:40:44;;;;;;;2.95;2.50;;;25.30;54.90;;;;;;5018987;28;20018;-64
2023/09/18 05:43:11;;;;;;;4.65;2.90;;;25.30;54.70;;;;;;5018736;28;20030;-65
2023/09/18 05:45:38;;;;;;;3.55;2.88;;;25.40;54.60;;;;;;5017854;28;20440;-65
2023/09/18 05:48:04;;;;;;;4.45;2.90;;;25.30;54.40;;;;;;5019763;28;20036;-64
2023/09/18 05:50:31;;;;;;;3.92;3.38;;;25.40;54.20;;;;;;5019595;28;20489;-65
2023/09/18 05:53:00;;;;;;;3.60;3.25;;;25.40;54.10;;;;;;5020466;28;20437;-64
2023/09/18 05:55:26;;;;;;;4.20;3.60;;;25.40;54.00;;;;;;5020412;28;20021;-64
2023/09/18 05:57:52;;;;;;;4.18;3.28;;;25.40;54.00;;;;;;5019694;28;20163;-65
2023/09/18 06:00:18;;;;;;;4.38;3.70;;;25.40;53.90;;;;;;5016908;28;20472;-64
2023/09/18 06:02:45;;;;;;;4.72;2.92;;;25.40;53.80;;;;;;5020001;28;20035;-64
2023/09/18 06:05:11;;;;;;;3.30;2.67;;;25.50;53.90;;;;;;5018742;28;20045;-65
2023/09/18 06:07:37;;;;;;;3.40;3.03;;;25.40;53.80;;;;;;5019993;28;20332;-64
2023/09/18 06:10:02;;;;;;;3.60;3.00;;;25.40;53.80;;;;;;5017791;28;20030;-64
2023/09/18 06:12:29;;;;;;;3.90;2.88;;;25.40;53.90;;;;;;5018311;28;20382;-65
2023/09/18 06:14:54;;;;;;;5.10;3.35;;;25.40;53.80;;;;;;5019276;28;20029;-64
2023/09/18 06:17:20;;;;;;;4.43;3.70;;;25.50;53.80;;;;;;5018288;28;20536;-65
2023/09/18 06:19:46;;;;;;;4.03;3.28;;;25.50;53.80;;;;;;5017799;28;20022;-64
2023/09/18 06:22:12;;;;;;;4.28;3.50;;;25.50;53.70;;;;;;5019579;28;20034;-65
2023/09/18 06:24:38;;;;;;;4.28;3.60;;;25.50;53.60;;;;;;5017956;28;20516;-64
2023/09/18 06:27:04;;;;;;;4.90;3.40;;;25.50;53.50;;;;;;5018483;28;20029;-63
2023/09/18 06:29:31;;;;;;;3.60;3.20;;;25.50;53.50;;;;;;5018341;28;20571;-64
2023/09/18 06:31:56;;;;;;;4.63;3.53;;;25.50;53.50;;;;;;5015821;28;20022;-64
2023/09/18 06:34:22;;;;;;;4.75;3.80;;;25.50;53.50;;;;;;5019537;28;20440;-64
2023/09/18 06:36:47;;;;;;;6.55;3.35;;;25.50;53.50;;;;;;5018080;28;20032;-64
2023/09/18 06:39:13;;;;;;;3.83;3.35;;;25.60;53.60;;;;;;5018167;28;20500;-64
2023/09/18 06:41:39;;;;;;;3.67;3.33;;;25.60;53.50;;;;;;5018339;28;20092;-63
2023/09/18 06:44:05;;;;;;;4.30;3.40;;;25.60;53.50;;;;;;5018016;28;20029;-63
2023/09/18 06:46:30;;;;;;;3.92;3.53;;;25.60;53.50;;;;;;5021993;28;20026;-63
2023/09/18 06:48:56;;;;;;;4.88;3.47;;;25.70;53.60;;;;;;5018259;28;20033;-63
2023/09/18 06:51:23;;;;;;;5.05;3.30;;;25.70;53.60;;;;;;5018259;28;20061;-63
2023/09/18 06:53:49;;;;;;;3.58;3.22;;;25.70;53.70;;;;;;5019594;28;20103;-63
2023/09/18 06:56:14;;;;;;;3.50;3.00;;;25.70;53.70;;;;;;5019134;28;20026;-65
2023/09/18 06:58:40;;;;;;;3.35;3.00;;;25.70;53.70;;;;;;5017763;28;20068;-65
2023/09/18 07:01:06;;;;;;;4.18;3.20;;;25.70;53.70;;;;;;5018281;28;20089;-64
2023/09/18 07:03:34;;;;;;;4.10;3.25;;;25.70;53.70;;;;;;5018772;28;20148;-65
2023/09/18 07:06:00;;;;;;;3.80;3.22;;;25.70;53.70;;;;;;5017112;28;20638;-62
2023/09/18 07:08:26;;;;;;;3.75;3.15;;;25.70;53.70;;;;;;5022429;28;20029;-62
2023/09/18 07:10:51;;;;;;;4.60;3.30;;;25.80;53.80;;;;;;5021873;28;20079;-61
2023/09/18 07:13:17;;;;;;;4.05;3.10;;;25.80;53.80;;;;;;5020851;28;20022;-62
2023/09/18 07:15:43;;;;;;;4.13;3.25;;;25.80;53.90;;;;;;5020477;28;20021;-62
2023/09/18 07:18:13;;;;;;;3.65;3.00;;;25.80;53.90;;;;;;5023529;28;20075;-62
2023/09/18 07:20:45;;;;;;;3.70;3.25;;;25.80;53.90;;;;;;5020068;28;20112;-63
2023/09/18 07:23:11;;;;;;;3.70;3.28;;;25.80;54.00;;;;;;5022447;28;20033;-63
2023/09/18 07:25:40;;;;;;;4.45;3.22;;;25.80;53.90;;;;;;5023244;28;20083;-63
2023/09/18 07:28:06;;;;;;;4.88;3.28;;;25.80;54.00;;;;;;5023713;28;20025;-63
2023/09/18 07:30:33;;;;;;;3.63;2.70;;;25.80;54.00;;;;;;5021985;28;20065;-63
2023/09/18 07:32:58;;;;;;;3.25;2.95;;;25.80;54.10;;;;;;5019369;28;20037;-63
2023/09/18 07:35:27;;;;;;;3.33;2.97;;;25.80;54.10;;;;;;5019973;28;20065;-63
2023/09/18 07:37:53;;;;;;;4.18;2.85;;;25.80;54.10;;;;;;5022153;28;20073;-63
2023/09/18 07:40:19;;;;;;;3.40;2.88;;;25.80;54.10;;;;;;5022332;28;20054;-63
2023/09/18 07:42:44;;;;;;;3.72;2.85;;;25.90;54.30;;;;;;5019349;28;20375;-62
2023/09/18 07:45:11;;;;;;;4.80;3.20;;;25.90;54.80;;;;;;5021405;28;20079;-62
2023/09/18 07:47:36;;;;;;;3.65;2.90;;;25.90;54.20;;;;;;5021608;28;20516;-63
2023/09/18 07:50:02;;;;;;;3.08;2.75;;;25.90;54.20;;;;;;5022350;28;20053;-62
2023/09/18 07:52:29;;;;;;;3.60;2.72;;;25.90;54.10;;;;;;5020587;28;20026;-63
2023/09/18 07:54:55;;;;;;;3.63;2.75;;;25.90;54.10;;;;;;5020191;28;20019;-62
2023/09/18 07:57:22;;;;;;;3.80;2.80;;;25.90;54.10;;;;;;5019496;28;20033;-62
2023/09/18 07:59:48;;;;;;;3.60;2.75;;;26.00;54.20;;;;;;5019352;28;20017;-62
2023/09/18 08:02:14;;;;;;;3.40;3.10;;;26.00;54.20;;;;;;5019808;28;20022;-62
2023/09/18 08:04:39;;;;;;;3.47;2.80;;;26.00;54.20;;;;;;5021128;28;20036;-62
2023/09/18 08:07:06;;;;;;;3.50;3.00;;;26.00;54.20;;;;;;5022003;28;20041;-61
2023/09/18 08:09:36;;;;;;;3.20;2.67;;;26.00;54.10;;;;;;5022038;28;20140;-62
2023/09/18 08:12:08;;;;;;;;;;;26.00;54.10;;;;;;5021040;28;20041;-63
2023/09/18 08:14:37;;;;;;;3.25;2.80;;;26.00;54.10;;;;;;5020061;28;19916;-65
2023/09/18 08:17:04;;;;;;;3.40;2.90;;;26.00;54.00;;;;;;5022615;28;20557;-65
2023/09/18 08:19:31;;;;;;;4.15;2.97;;;26.10;54.10;;;;;;5022462;28;20152;-65
2023/09/18 08:21:57;;;;;;;3.55;3.00;;;26.10;54.10;;;;;;5021801;28;20037;-65
2023/09/18 08:24:23;;;;;;;3.05;2.58;;;26.10;54.10;;;;;;5021634;28;20112;-64
2023/09/18 08:26:49;;;;;;;4.97;3.22;;;26.10;54.20;;;;;;5020899;28;20112;-65
2023/09/18 08:29:15;;;;;;;4.07;3.00;;;26.10;54.10;;;;;;5018619;28;20452;-64
2023/09/18 08:31:41;;;;;;;3.90;2.85;;;26.10;54.20;;;;;;5021566;28;20327;-64
2023/09/18 08:34:07;;;;;;;3.40;2.95;;;26.10;54.20;;;;;;5020126;28;20037;-65
2023/09/18 08:36:33;;;;;;;3.47;2.70;;;26.10;54.10;;;;;;5020127;28;20371;-65
2023/09/18 08:38:58;;;;;;;4.00;2.70;;;26.10;54.00;;;;;;5021506;28;20021;-64
2023/09/18 08:41:27;;;;;;;3.45;3.00;;;26.20;54.10;;;;;;5020580;28;20493;-65
2023/09/18 08:43:59;;;;;;;3.63;2.92;;;26.20;54.00;;;;;;5019832;28;20053;-64
2023/09/18 08:46:25;;;;;;;4.03;3.05;;;26.20;54.00;;;;;;5019191;28;20043;-65
2023/09/18 08:48:51;;;;;;;3.55;2.90;;;26.20;54.00;;;;;;5019623;28;20025;-64
2023/09/18 08:51:18;;;;;;;3.55;3.10;;;26.20;54.00;;;;;;5019742;28;20118;-65
2023/09/18 08:53:45;;;;;;;3.88;2.80;;;26.20;53.90;;;;;;5021303;28;20026;-65
2023/09/18 08:56:13;;;;;;;3.40;2.80;;;26.20;54.40;;;;;;5020949;28;20099;-65
2023/09/18 08:58:42;;;;;;;4.30;2.83;;;26.20;53.90;;;;;;5019874;28;20112;-64
2023/09/18 09:01:11;;;;;;;;;;;26.20;53.90;;;;;;5021526;28;20037;-65
2023/09/18 09:03:45;;;;;;;4.38;3.20;;;26.30;53.90;;;;;;5020369;28;19950;-64
2023/09/18 09:06:12;;;;;;;3.05;2.75;;;26.30;53.90;;;;;;5020114;28;20114;-64
2023/09/18 09:08:38;;;;;;;3.15;2.78;;;26.30;53.90;;;;;;5019918;28;20076;-65
2023/09/18 09:11:05;;;;;;;3.53;2.80;;;26.30;53.90;;;;;;5019101;28;20029;-65
2023/09/18 09:13:30;;;;;;;3.30;2.90;;;26.30;53.80;;;;;;5019546;28;20185;-65
2023/09/18 09:16:00;;;;;;;3.47;2.85;;;26.30;53.90;;;;;;5017472;28;20110;-63
2023/09/18 09:18:27;;;;;;;;;;;26.30;53.90;;;;;;5021848;28;20068;-64
2023/09/18 09:20:58;;;;;;;3.55;2.90;;;26.30;53.90;;;;;;5019818;28;19924;-63
2023/09/18 09:23:25;;;;;;;3.05;2.70;;;26.30;53.90;;;;;;5021009;28;20029;-63
2023/09/18 09:25:51;;;;;;;3.22;2.72;;;26.30;53.90;;;;;;5019064;28;20030;-62
2023/09/18 09:28:31;;;;;;;3.50;2.70;;;26.30;53.80;;;;;;5019524;28;20393;-62
2023/09/18 09:31:02;;;;;;;3.70;2.70;;;26.40;54.00;;;;;;5017343;28;20394;-61
2023/09/18 09:33:29;;;;;;;3.20;2.50;;;26.40;54.00;;;;;;5017753;28;20029;-62
2023/09/18 09:35:55;;;;;;;3.60;2.70;;;26.40;54.00;;;;;;5019998;28;20018;-63
2023/09/18 09:38:32;;;;;;;3.92;2.63;;;26.40;53.90;;;;;;5021120;28;20381;-62
2023/09/18 09:41:00;;;;;;;4.07;2.63;;;26.30;53.90;;;;;;5020427;28;20060;-62
2023/09/18 09:43:27;;;;;;;3.97;2.88;;;26.40;54.00;;;;;;5019598;28;20140;-61
2023/09/18 09:46:01;;;;;;;3.72;2.88;;;26.40;54.00;;;;;;5017165;28;20056;-62
2023/09/18 09:48:27;;;;;;;3.42;2.75;;;26.40;54.00;;;;;;5017645;28;20035;-62
2023/09/18 09:50:59;;;;;;;4.95;2.72;;;26.40;54.00;;;;;;5018327;28;20033;-61
2023/09/18 09:53:47;;;;;;;3.72;3.08;;;26.40;53.90;;;;;;5020096;28;20034;-62
2023/09/18 09:56:13;;;;;;;3.22;2.53;;;26.40;53.90;;;;;;5017523;28;20523;-62
2023/09/18 09:58:43;;;;;;;4.90;2.92;;;26.40;53.90;;;;;;5018520;28;20113;-62
2023/09/18 10:01:17;;;;;;;3.78;2.70;;;26.40;53.90;;;;;;5016999;28;20478;-61
2023/09/18 10:03:44;;;;;;;3.15;2.53;;;26.40;53.90;;;;;;5020729;28;20033;-62
2023/09/18 10:06:13;;;;;;;3.45;2.67;;;26.50;54.00;;;;;;5019632;28;20034;-63
2023/09/18 10:08:39;;;;;;;3.22;2.70;;;26.40;53.80;;;;;;5020055;28;20053;-62
2023/09/18 10:11:10;;;;;;;3.30;2.60;;;26.50;53.90;;;;;;5018621;28;20060;-62
2023/09/18 10:13:46;;;;;;;4.82;2.63;;;26.50;53.90;;;;;;5019751;28;20473;-62
2023/09/18 10:16:13;;;;;;;3.88;2.60;;;26.50;53.90;;;;;;5016272;28;20044;-61
2023/09/18 10:18:52;;;;;;;3.10;2.58;;;26.50;53.80;;;;;;5019580;28;20032;-62
2023/09/18 10:21:49;;;;;;;4.30;2.72;;;26.50;53.80;;;;;;5017562;28;20014;-63
2023/09/18 10:24:20;;;;;;;3.47;2.72;;;26.50;53.80;;;;;;5020205;28;20557;-61
2023/09/18 10:26:56;;;;;;;4.03;2.63;;;26.50;53.80;;;;;;4974694;28;62838;-64
2023/09/18 10:29:24;;;;;;;3.33;2.55;;;26.50;53.80;;;;;;4994546;28;20052;-64
2023/09/18 10:31:51;;;;;;;3.40;2.53;;;26.50;53.80;;;;;;5012675;28;20137;-65
2023/09/18 10:34:19;;;;;;;3.83;2.58;;;26.60;53.80;;;;;;4999031;28;20055;-65
2023/09/18 10:36:47;;;;;;;3.65;2.50;;;26.50;53.80;;;;;;4999881;28;20466;-63
2023/09/18 10:39:19;;;;;;;3.22;2.38;;;26.60;53.80;;;;;;4999345;28;20022;-60
2023/09/18 10:41:48;;;;;;;2.70;2.15;;;26.50;53.70;;;;;;4999196;28;20477;-61
2023/09/18 10:44:16;;;;;;;;;;;26.60;53.80;;;;;;5000324;28;20034;-61
2023/09/18 10:46:41;;;;;;;3.53;2.40;;;26.60;53.70;;;;;;4997756;28;19957;-62
2023/09/18 10:49:07;;;;;;;4.13;2.30;;;26.60;53.70;;;;;;4998480;28;20030;-60
2023/09/18 10:51:37;;;;;;;3.10;2.40;;;26.60;53.60;;;;;;4999658;28;20032;-60
2023/09/18 10:54:04;;;;;;;3.22;2.00;;;26.60;53.60;;;;;;4999787;28;20061;-60
2023/09/18 10:56:31;;;;;;;2.90;2.30;;;26.60;53.70;;;;;;4998285;28;20506;-60
2023/09/18 10:59:01;;;;;;;3.42;2.30;;;26.60;53.70;;;;;;5000377;28;20501;-61
2023/09/18 11:01:30;;;;;;;3.72;2.38;;;26.60;53.70;;;;;;4999268;28;20102;-60
2023/09/18 11:04:01;;;;;;;3.42;2.42;;;26.60;53.70;;;;;;4998891;28;20034;-60
2023/09/18 11:06:27;;;;;;;3.60;2.22;;;26.60;53.70;;;;;;4998197;28;20033;-60
2023/09/18 11:09:03;;;;;;;3.72;2.20;;;26.60;53.70;;;;;;4999601;28;20030;-60
2023/09/18 11:11:32;;;;;;;4.10;2.13;;;26.60;53.60;;;;;;4998788;28;20117;-61
2023/09/18 11:13:59;;;;;;;3.67;2.30;;;26.60;53.50;;;;;;4997689;28;20021;-61
2023/09/18 11:16:28;;;;;;;3.13;2.20;;;26.60;54.00;;;;;;4996909;28;20393;-61
2023/09/18 11:19:03;;;;;;;3.67;2.10;;;26.60;53.60;;;;;;4997947;28;20030;-62
2023/09/18 11:21:31;;;;;;;2.70;2.10;;;26.60;53.60;;;;;;5000936;28;20811;-61
2023/09/18 11:24:05;;;;;;;3.08;2.30;;;26.60;53.50;;;;;;4996857;28;20105;-60
2023/09/18 11:26:35;;;;;;;3.65;2.25;;;26.60;53.50;;;;;;4997374;28;20066;-60
2023/09/18 11:29:13;;;;;;;3.88;2.20;;;26.70;53.60;;;;;;4997437;28;20113;-63
2023/09/18 11:31:50;;;;;;;2.92;2.10;;;26.70;53.60;;;;;;4996335;28;20508;-63
2023/09/18 11:34:41;;;;;;;3.40;2.13;;;26.70;53.60;;;;;;4998991;28;20397;-61
2023/09/18 11:37:23;;;;;;;2.95;2.10;;;26.70;53.70;;;;;;4997660;28;20011;-65
2023/09/18 11:39:49;;;;;;;3.15;1.95;;;26.70;53.60;;;;;;4997900;28;20049;-65
2023/09/18 11:42:26;;;;;;;2.95;2.08;;;26.70;53.60;;;;;;4998097;28;20033;-65
2023/09/18 11:44:52;;;;;;;3.33;2.42;;;26.70;53.60;;;;;;4999262;28;20030;-65
2023/09/18 11:47:24;;;;;;;3.30;2.00;;;26.70;53.70;;;;;;4997058;28;20433;-65
2023/09/18 11:49:54;;;;;;;3.28;2.10;;;26.70;53.70;;;;;;4998627;28;20207;-65
2023/09/18 11:52:21;;;;;;;3.05;2.10;;;26.70;53.60;;;;;;4996937;28;20045;-65
2023/09/18 11:54:47;;;;;;;3.35;2.20;;;26.70;53.70;;;;;;4999247;28;20035;-65
2023/09/18 11:57:14;;;;;;;3.15;2.15;;;26.70;53.70;;;;;;4999390;28;20054;-64
2023/09/18 11:59:46;;;;;;;3.22;2.00;;;26.70;53.70;;;;;;5000843;28;20029;-65
2023/09/18 12:02:35;;;;;;;3.70;2.00;;;26.70;53.60;;;;;;5000765;28;20022;-65
2023/09/18 12:05:26;;;;;;;3.65;2.00;;;26.70;53.70;;;;;;5002025;28;20553;-65
2023/09/18 12:07:52;;;;;;;2.20;1.80;;;26.70;53.70;;;;;;4999387;28;20121;-65
2023/09/18 12:10:22;;;;;;;3.55;2.03;;;26.70;53.70;;;;;;5003237;28;20165;-65
2023/09/18 12:12:48;;;;;;;2.85;2.00;;;26.80;53.70;;;;;;5003953;28;20366;-65
2023/09/18 12:15:17;;;;;;;2.78;2.00;;;26.80;53.70;;;;;;5002971;28;20017;-64
2023/09/18 12:17:42;;;;;;;3.03;1.80;;;26.70;53.60;;;;;;5001856;28;20026;-65
2023/09/18 12:20:20;;;;;;;3.03;2.10;;;26.80;53.70;;;;;;5002749;28;20037;-65
2023/09/18 12:22:50;;;;;;;2.83;1.98;;;26.80;53.80;;;;;;5000310;28;20529;-66
2023/09/18 12:25:19;;;;;;;2.60;1.98;;;26.80;53.80;;;;;;5017877;28;20036;-65
2023/09/18 12:27:45;;;;;;;2.08;1.70;;;26.80;53.80;;;;;;5016145;28;20030;-65
2023/09/18 12:30:12;;;;;;;2.55;1.70;;;26.80;53.80;;;;;;5003109;28;20060;-65
2023/09/18 12:32:39;;;;;;;2.72;2.00;;;26.80;53.80;;;;;;4999239;28;20034;-65
2023/09/18 12:35:07;;;;;;;2.40;1.80;;;26.80;53.70;;;;;;5001999;28;20029;-65
2023/09/18 12:37:35;;;;;;;2.55;1.80;;;26.80;53.70;;;;;;4999769;28;20156;-66
2023/09/18 12:40:00;;;;;;;2.35;1.67;;;26.80;53.80;;;;;;5001617;28;20537;-65
2023/09/18 12:42:27;;;;;;;2.15;1.83;;;26.80;53.70;;;;;;5000573;28;20172;-65
2023/09/18 12:44:53;;;;;;;3.65;1.90;;;26.80;53.70;;;;;;5001194;28;20498;-65
2023/09/18 12:47:18;;;;;;;3.25;1.85;;;26.80;53.70;;;;;;4997548;28;20034;-65
2023/09/18 12:49:44;;;;;;;2.42;1.77;;;26.80;54.30;;;;;;5001775;28;20049;-65